Time;durP1;ratioP1;P1;durP2;ratioP2;P2;SDS_P1;SDS_P2;PMS_P1;PMS_P2;Temp;Humidity;BMP_temperature;BMP_pressure;BME280_temperature;BME280_humidity;BME280_pressure;Samples;Min_cycle;Max_cycle;Signal;HPM_P1;HPM_P2
2021/08/17 00:01:16;;;;;;;8.55;4.07;;;;;;;;;;4448388;32;20276;-56
2021/08/17 00:03:41;;;;;;;8.60;4.25;;;;;;;;;;4448426;32;20248;-56
2021/08/17 00:06:08;;;;;;;6.32;4.55;;;;;;;;;;4448810;32;20287;-56
2021/08/17 00:08:33;;;;;;;5.12;3.92;;;;;;;;;;4448246;32;20224;-56
2021/08/17 00:10:59;;;;;;;9.35;4.25;;;;;;;;;;4448222;32;20471;-58
2021/08/17 00:13:25;;;;;;;7.57;4.28;;;;;;;;;;4448193;32;20217;-55
2021/08/17 00:15:50;;;;;;;5.78;4.47;;;;;;;;;;4448254;32;20287;-56
2021/08/17 00:18:16;;;;;;;7.45;4.18;;;;;;;;;;4448426;32;20354;-56
2021/08/17 00:20:43;;;;;;;7.57;4.72;;;;;;;;;;4448247;32;20240;-55
2021/08/17 00:23:08;;;;;;;12.13;5.35;;;;;;;;;;4447521;32;20742;-56
2021/08/17 00:25:35;;;;;;;8.65;3.92;;;;;;;;;;4448352;32;20267;-56
2021/08/17 00:28:01;;;;;;;8.27;3.75;;;;;;;;;;4433751;32;20381;-56
2021/08/17 00:30:27;;;;;;;7.70;4.22;;;;;;;;;;4448635;32;20283;-58
2021/08/17 00:32:53;;;;;;;7.15;4.05;;;;;;;;;;4436840;32;20290;-57
2021/08/17 00:35:19;;;;;;;6.37;4.03;;;;;;;;;;4418602;32;20759;-57
2021/08/17 00:37:44;;;;;;;9.00;4.18;;;;;;;;;;4433023;32;20294;-56
2021/08/17 00:40:10;;;;;;;7.93;4.50;;;;;;;;;;4432568;32;20228;-57
2021/08/17 00:42:43;;;;;;;8.82;5.25;;;;;;;;;;4432697;32;20340;-57
2021/08/17 00:45:23;;;;;;;9.60;7.95;;;;;;;;;;4436180;32;20260;-56
2021/08/17 00:47:50;;;;;;;9.02;6.97;;;;;;;;;;4448435;32;20273;-56
2021/08/17 00:50:17;;;;;;;10.15;7.40;;;;;;;;;;4448481;32;20320;-57
2021/08/17 00:52:43;;;;;;;11.10;7.82;;;;;;;;;;4447943;32;20323;-56
2021/08/17 00:55:10;;;;;;;12.02;7.30;;;;;;;;;;4433680;32;20284;-56
2021/08/17 00:57:40;;;;;;;9.43;6.03;;;;;;;;;;4448135;32;20197;-56
2021/08/17 01:00:06;;;;;;;7.05;5.18;;;;;;;;;;4449699;32;20289;-56
2021/08/17 01:02:32;;;;;;;7.93;5.10;;;;;;;;;;4451223;32;20319;-57
2021/08/17 01:04:58;;;;;;;6.82;4.68;;;;;;;;;;4450629;32;20212;-58
2021/08/17 01:07:23;;;;;;;7.32;4.10;;;;;;;;;;4436773;32;20797;-56
2021/08/17 01:09:49;;;;;;;6.78;4.20;;;;;;;;;;4436845;32;20268;-56
2021/08/17 01:12:14;;;;;;;5.40;4.25;;;;;;;;;;4450869;32;20301;-56
2021/08/17 01:14:41;;;;;;;6.28;3.80;;;;;;;;;;4451036;32;20588;-55
2021/08/17 01:17:06;;;;;;;5.25;4.45;;;;;;;;;;4450552;32;20546;-57
2021/08/17 01:19:33;;;;;;;5.60;4.00;;;;;;;;;;4436494;32;20236;-56
2021/08/17 01:21:59;;;;;;;9.85;4.45;;;;;;;;;;4450911;32;20553;-56
2021/08/17 01:24:25;;;;;;;8.85;5.68;;;;;;;;;;4449763;32;20224;-56
2021/08/17 01:26:50;;;;;;;6.35;4.35;;;;;;;;;;4450676;32;20322;-56
2021/08/17 01:29:16;;;;;;;5.90;3.87;;;;;;;;;;4450400;32;20629;-56
2021/08/17 01:31:42;;;;;;;7.45;4.05;;;;;;;;;;4450530;32;20683;-57
2021/08/17 01:34:08;;;;;;;8.30;4.68;;;;;;;;;;4450473;32;20220;-56
2021/08/17 01:36:34;;;;;;;5.25;3.85;;;;;;;;;;4446969;32;20291;-56
2021/08/17 01:38:59;;;;;;;7.07;4.43;;;;;;;;;;4449053;32;20686;-56
2021/08/17 01:41:25;;;;;;;6.22;4.22;;;;;;;;;;4449978;32;20309;-57
2021/08/17 01:43:51;;;;;;;9.43;4.45;;;;;;;;;;4450879;32;20278;-57
2021/08/17 01:46:16;;;;;;;6.87;3.83;;;;;;;;;;4435867;32;20330;-56
2021/08/17 01:48:42;;;;;;;7.37;4.62;;;;;;;;;;4450411;32;20229;-56
2021/08/17 01:51:09;;;;;;;6.37;4.90;;;;;;;;;;4450329;32;20296;-56
2021/08/17 01:53:36;;;;;;;7.35;4.40;;;;;;;;;;4449538;32;20235;-56
2021/08/17 01:56:15;;;;;;;8.00;4.65;;;;;;;;;;4450157;32;20339;-57
2021/08/17 01:58:41;;;;;;;8.80;4.12;;;;;;;;;;4449982;32;20315;-57
2021/08/17 02:01:08;;;;;;;6.50;4.80;;;;;;;;;;4435807;32;20311;-57
2021/08/17 02:03:34;;;;;;;6.70;4.20;;;;;;;;;;4449807;32;20321;-57
2021/08/17 02:06:00;;;;;;;5.85;5.15;;;;;;;;;;4435980;32;20317;-57
2021/08/17 02:08:26;;;;;;;6.37;4.40;;;;;;;;;;4449403;32;20285;-57
2021/08/17 02:10:51;;;;;;;6.15;4.82;;;;;;;;;;4449173;32;20284;-57
2021/08/17 02:13:17;;;;;;;7.82;4.60;;;;;;;;;;4449780;32;20831;-56
2021/08/17 02:15:44;;;;;;;13.68;4.45;;;;;;;;;;4449505;32;20283;-56
2021/08/17 02:18:10;;;;;;;7.22;5.28;;;;;;;;;;4449523;32;20275;-56
2021/08/17 02:20:36;;;;;;;7.68;5.55;;;;;;;;;;4457533;32;20221;-56
2021/08/17 02:23:01;;;;;;;9.13;5.12;;;;;;;;;;4465163;32;20294;-56
2021/08/17 02:25:26;;;;;;;9.50;5.22;;;;;;;;;;4465484;32;20284;-56
2021/08/17 02:27:52;;;;;;;10.23;5.03;;;;;;;;;;4465482;32;20294;-56
2021/08/17 02:30:17;;;;;;;8.45;6.07;;;;;;;;;;4465307;32;20282;-57
2021/08/17 02:32:43;;;;;;;9.93;5.30;;;;;;;;;;4455087;32;20321;-56
2021/08/17 02:35:09;;;;;;;7.80;6.22;;;;;;;;;;4449446;32;20282;-56
2021/08/17 02:37:34;;;;;;;12.20;6.37;;;;;;;;;;4448041;32;20300;-58
2021/08/17 02:40:00;;;;;;;10.88;7.10;;;;;;;;;;4449684;32;20228;-56
2021/08/17 02:42:26;;;;;;;19.85;5.95;;;;;;;;;;4449457;32;20316;-56
2021/08/17 02:44:52;;;;;;;10.73;5.65;;;;;;;;;;4455196;32;20228;-55
2021/08/17 02:47:17;;;;;;;8.57;5.40;;;;;;;;;;4465421;32;20662;-56
2021/08/17 02:49:43;;;;;;;8.40;5.53;;;;;;;;;;4464544;32;20287;-55
2021/08/17 02:52:08;;;;;;;7.25;4.80;;;;;;;;;;4464657;32;20347;-55
2021/08/17 02:54:37;;;;;;;5.93;4.22;;;;;;;;;;4465277;32;20371;-56
2021/08/17 02:57:04;;;;;;;7.85;4.90;;;;;;;;;;4464947;32;20208;-56
2021/08/17 02:59:31;;;;;;;6.12;4.35;;;;;;;;;;4465151;32;20228;-55
2021/08/17 03:01:56;;;;;;;8.35;4.82;;;;;;;;;;4465045;32;20229;-56
2021/08/17 03:04:22;;;;;;;9.57;5.30;;;;;;;;;;4464788;32;20244;-55
2021/08/17 03:06:47;;;;;;;8.95;5.05;;;;;;;;;;4464748;32;20676;-56
2021/08/17 03:09:13;;;;;;;9.88;5.20;;;;;;;;;;4464464;32;20255;-56
2021/08/17 03:11:38;;;;;;;8.95;5.03;;;;;;;;;;4464383;32;20305;-55
2021/08/17 03:14:04;;;;;;;9.43;5.22;;;;;;;;;;4464100;32;20341;-55
2021/08/17 03:16:30;;;;;;;7.22;5.20;;;;;;;;;;4464433;32;20779;-56
2021/08/17 03:18:55;;;;;;;9.32;6.65;;;;;;;;;;4464379;32;20254;-55
2021/08/17 03:21:22;;;;;;;9.73;7.03;;;;;;;;;;4464018;32;20247;-55
2021/08/17 03:23:47;;;;;;;12.30;6.05;;;;;;;;;;4464023;32;20219;-55
2021/08/17 03:26:13;;;;;;;8.25;5.75;;;;;;;;;;4464324;32;20608;-58
2021/08/17 03:28:38;;;;;;;7.65;5.60;;;;;;;;;;4464173;32;20224;-55
2021/08/17 03:31:07;;;;;;;9.77;5.55;;;;;;;;;;4464250;32;20702;-58
2021/08/17 03:33:33;;;;;;;10.88;5.80;;;;;;;;;;4464435;32;20642;-56
2021/08/17 03:35:59;;;;;;;7.65;5.30;;;;;;;;;;4464104;32;20309;-55
2021/08/17 03:38:25;;;;;;;8.13;4.78;;;;;;;;;;4463899;32;20213;-55
2021/08/17 03:40:50;;;;;;;7.18;4.93;;;;;;;;;;4459283;32;20286;-55
2021/08/17 03:43:16;;;;;;;13.60;5.20;;;;;;;;;;4448704;32;20362;-55
2021/08/17 03:45:42;;;;;;;6.53;4.53;;;;;;;;;;4448267;32;20822;-56
2021/08/17 03:48:07;;;;;;;13.23;5.00;;;;;;;;;;4448661;32;20298;-56
2021/08/17 03:50:33;;;;;;;7.82;5.28;;;;;;;;;;4448082;32;20306;-56
2021/08/17 03:52:58;;;;;;;9.82;4.28;;;;;;;;;;4448301;32;20537;-56
2021/08/17 03:55:24;;;;;;;7.43;5.40;;;;;;;;;;4448178;32;20286;-55
2021/08/17 03:57:50;;;;;;;6.85;4.55;;;;;;;;;;4448135;32;20283;-55
2021/08/17 04:00:25;;;;;;;8.20;4.70;;;;;;;;;;4448183;32;20651;-55
2021/08/17 04:02:51;;;;;;;12.13;4.47;;;;;;;;;;4448206;32;20517;-56
2021/08/17 04:05:16;;;;;;;5.90;4.65;;;;;;;;;;4448105;32;20336;-56
2021/08/17 04:07:42;;;;;;;25.17;5.30;;;;;;;;;;4448399;32;20294;-55
2021/08/17 04:10:08;;;;;;;8.73;4.62;;;;;;;;;;4447822;32;20252;-55
2021/08/17 04:12:33;;;;;;;6.45;4.43;;;;;;;;;;4448541;32;20331;-57
2021/08/17 04:14:59;;;;;;;11.35;5.03;;;;;;;;;;4447207;32;20618;-57
2021/08/17 04:17:24;;;;;;;12.20;6.82;;;;;;;;;;4447773;32;20279;-58
2021/08/17 04:19:50;;;;;;;10.13;4.70;;;;;;;;;;4448188;32;20664;-56
2021/08/17 04:22:15;;;;;;;6.75;5.05;;;;;;;;;;4448098;32;20592;-56
2021/08/17 04:24:41;;;;;;;7.22;5.50;;;;;;;;;;4447837;32;20523;-57
2021/08/17 04:27:06;;;;;;;6.32;4.53;;;;;;;;;;4447948;32;20279;-57
2021/08/17 04:29:32;;;;;;;6.20;4.87;;;;;;;;;;4448079;32;20228;-56
2021/08/17 04:31:57;;;;;;;7.80;5.95;;;;;;;;;;4453492;32;20779;-56
2021/08/17 04:34:23;;;;;;;6.65;5.07;;;;;;;;;;4465476;32;20258;-56
2021/08/17 04:36:48;;;;;;;10.77;5.72;;;;;;;;;;4463496;32;20291;-58
2021/08/17 04:39:14;;;;;;;8.98;5.32;;;;;;;;;;4450150;32;20341;-55
2021/08/17 04:41:41;;;;;;;9.63;5.60;;;;;;;;;;4451337;32;20659;-55
2021/08/17 04:44:07;;;;;;;11.48;5.65;;;;;;;;;;4452511;32;20224;-56
2021/08/17 04:46:32;;;;;;;7.50;5.12;;;;;;;;;;4465793;32;20313;-55
2021/08/17 04:48:57;;;;;;;7.97;5.30;;;;;;;;;;4466625;32;20250;-55
2021/08/17 04:51:23;;;;;;;10.38;6.03;;;;;;;;;;4466459;32;20286;-57
2021/08/17 04:53:49;;;;;;;7.57;5.30;;;;;;;;;;4466298;32;20232;-56
2021/08/17 04:56:15;;;;;;;8.77;6.35;;;;;;;;;;4466160;32;20274;-56
2021/08/17 04:58:40;;;;;;;10.73;5.82;;;;;;;;;;4466234;32;20267;-55
2021/08/17 05:01:06;;;;;;;10.07;5.75;;;;;;;;;;4466169;32;20283;-57
2021/08/17 05:03:31;;;;;;;12.90;5.82;;;;;;;;;;4466418;32;20247;-56
2021/08/17 05:05:57;;;;;;;41.28;6.12;;;;;;;;;;4466356;32;20326;-57
2021/08/17 05:08:22;;;;;;;8.65;5.62;;;;;;;;;;4466423;32;20255;-55
2021/08/17 05:10:48;;;;;;;13.38;7.40;;;;;;;;;;4466527;32;20710;-55
2021/08/17 05:13:13;;;;;;;12.75;7.95;;;;;;;;;;4466368;32;20738;-56
2021/08/17 05:15:39;;;;;;;13.10;7.80;;;;;;;;;;4466472;32;20309;-55
2021/08/17 05:18:05;;;;;;;9.55;6.93;;;;;;;;;;4466139;32;20302;-56
2021/08/17 05:20:30;;;;;;;17.45;8.30;;;;;;;;;;4466386;32;20252;-56
2021/08/17 05:22:56;;;;;;;12.95;7.40;;;;;;;;;;4466390;32;20317;-56
2021/08/17 05:25:22;;;;;;;10.95;6.87;;;;;;;;;;4466811;32;20350;-57
2021/08/17 05:27:48;;;;;;;7.30;5.40;;;;;;;;;;4466108;32;20648;-56
2021/08/17 05:30:13;;;;;;;10.77;6.60;;;;;;;;;;4466662;32;20264;-55
2021/08/17 05:32:39;;;;;;;14.93;5.80;;;;;;;;;;4465799;32;20299;-56
2021/08/17 05:35:06;;;;;;;10.07;6.15;;;;;;;;;;4450514;32;20574;-56
2021/08/17 05:37:32;;;;;;;6.40;5.62;;;;;;;;;;4450381;32;20220;-57
2021/08/17 05:39:58;;;;;;;14.20;6.57;;;;;;;;;;4450233;32;20240;-56
2021/08/17 05:42:24;;;;;;;13.15;5.82;;;;;;;;;;4450893;32;20348;-56
2021/08/17 05:44:49;;;;;;;7.75;6.00;;;;;;;;;;4449443;32;20656;-56
2021/08/17 05:47:15;;;;;;;8.82;6.18;;;;;;;;;;4450408;32;20297;-56
2021/08/17 05:49:40;;;;;;;9.57;5.95;;;;;;;;;;4450078;32;20582;-56
2021/08/17 05:52:08;;;;;;;15.40;6.10;;;;;;;;;;4450169;32;20565;-58
2021/08/17 05:54:34;;;;;;;7.25;5.32;;;;;;;;;;4449905;32;20759;-56
2021/08/17 05:56:59;;;;;;;6.47;5.55;;;;;;;;;;4450388;32;20271;-57
2021/08/17 05:59:26;;;;;;;12.07;6.85;;;;;;;;;;4449773;32;20245;-56
2021/08/17 06:01:59;;;;;;;14.35;6.37;;;;;;;;;;4450141;32;20632;-57
2021/08/17 06:04:25;;;;;;;7.70;5.40;;;;;;;;;;4450029;32;20338;-55
2021/08/17 06:06:51;;;;;;;6.95;5.55;;;;;;;;;;4449999;32;20287;-57
2021/08/17 06:09:19;;;;;;;9.05;6.35;;;;;;;;;;4449987;32;20362;-58
2021/08/17 06:11:46;;;;;;;10.40;7.20;;;;;;;;;;4450201;32;20338;-57
2021/08/17 06:14:12;;;;;;;14.10;6.55;;;;;;;;;;4450493;32;20351;-56
2021/08/17 06:16:37;;;;;;;11.25;6.35;;;;;;;;;;4450326;32;20271;-56
2021/08/17 06:19:03;;;;;;;6.43;5.57;;;;;;;;;;4449815;32;20220;-56
2021/08/17 06:21:31;;;;;;;9.25;5.55;;;;;;;;;;4450065;32;20251;-56
2021/08/17 06:23:56;;;;;;;12.00;5.40;;;;;;;;;;4449913;32;20326;-57
2021/08/17 06:26:22;;;;;;;10.43;6.43;;;;;;;;;;4450193;32;20619;-56
2021/08/17 06:28:47;;;;;;;13.77;6.93;;;;;;;;;;4449621;32;20568;-56
2021/08/17 06:31:17;;;;;;;11.88;5.87;;;;;;;;;;4449003;32;20323;-56
2021/08/17 06:33:42;;;;;;;7.93;5.97;;;;;;;;;;4464403;32;20247;-56
2021/08/17 06:36:08;;;;;;;8.27;6.60;;;;;;;;;;4465237;32;20305;-56
2021/08/17 06:38:33;;;;;;;8.93;5.75;;;;;;;;;;4465012;32;20340;-57
2021/08/17 06:40:59;;;;;;;8.40;5.43;;;;;;;;;;4465237;32;20402;-56
2021/08/17 06:43:28;;;;;;;7.65;5.57;;;;;;;;;;4465582;32;20238;-55
2021/08/17 06:45:53;;;;;;;9.00;6.03;;;;;;;;;;4464834;32;20271;-56
2021/08/17 06:48:19;;;;;;;9.40;5.70;;;;;;;;;;4465082;32;20225;-56
2021/08/17 06:50:44;;;;;;;8.68;5.82;;;;;;;;;;4465110;32;20332;-56
2021/08/17 06:53:10;;;;;;;14.98;6.15;;;;;;;;;;4465116;32;20359;-56
2021/08/17 06:55:35;;;;;;;9.55;6.35;;;;;;;;;;4465058;32;20647;-57
2021/08/17 06:58:01;;;;;;;8.30;5.57;;;;;;;;;;4463920;32;20306;-55
2021/08/17 07:00:26;;;;;;;10.32;6.20;;;;;;;;;;4464843;32;20283;-57
2021/08/17 07:02:52;;;;;;;10.48;6.68;;;;;;;;;;4464502;32;20279;-56
2021/08/17 07:05:17;;;;;;;8.35;6.07;;;;;;;;;;4464810;32;20271;-56
2021/08/17 07:07:43;;;;;;;12.02;5.72;;;;;;;;;;4465219;32;20263;-55
2021/08/17 07:10:09;;;;;;;7.57;5.43;;;;;;;;;;4464681;32;20220;-55
2021/08/17 07:12:34;;;;;;;13.50;7.55;;;;;;;;;;4465565;32;20294;-56
2021/08/17 07:15:00;;;;;;;8.20;5.85;;;;;;;;;;4464592;32;20224;-55
2021/08/17 07:17:26;;;;;;;9.25;6.45;;;;;;;;;;4464756;32;20275;-57
2021/08/17 07:19:51;;;;;;;8.10;5.62;;;;;;;;;;4464201;32;20236;-55
2021/08/17 07:22:16;;;;;;;11.98;7.15;;;;;;;;;;4464688;32;20212;-56
2021/08/17 07:24:42;;;;;;;10.38;6.30;;;;;;;;;;4464829;32;20629;-56
2021/08/17 07:27:07;;;;;;;9.13;5.90;;;;;;;;;;4451330;32;20275;-56
2021/08/17 07:29:33;;;;;;;7.30;5.80;;;;;;;;;;4449161;32;20619;-55
2021/08/17 07:31:58;;;;;;;9.35;6.05;;;;;;;;;;4454386;32;20295;-56
2021/08/17 07:34:24;;;;;;;12.00;6.43;;;;;;;;;;4464290;32;20329;-56
2021/08/17 07:36:49;;;;;;;9.13;5.45;;;;;;;;;;4463983;32;20291;-56
2021/08/17 07:39:15;;;;;;;8.82;5.75;;;;;;;;;;4464287;32;20549;-56
2021/08/17 07:41:41;;;;;;;12.45;5.40;;;;;;;;;;4463792;32;20287;-57
2021/08/17 07:44:07;;;;;;;10.68;6.68;;;;;;;;;;4463469;32;20279;-56
2021/08/17 07:46:34;;;;;;;7.37;5.35;;;;;;;;;;4464491;32;20349;-56
2021/08/17 07:48:59;;;;;;;7.93;5.55;;;;;;;;;;4464110;32;20252;-56
2021/08/17 07:51:25;;;;;;;8.73;6.05;;;;;;;;;;4463880;32;20709;-56
2021/08/17 07:53:51;;;;;;;8.50;5.57;;;;;;;;;;4464416;32;20568;-56
2021/08/17 07:56:17;;;;;;;7.80;5.50;;;;;;;;;;4463974;32;20593;-56
2021/08/17 07:58:43;;;;;;;6.70;5.20;;;;;;;;;;4463975;32;20297;-57
2021/08/17 08:01:11;;;;;;;6.78;5.20;;;;;;;;;;4464371;32;20360;-58
2021/08/17 08:03:39;;;;;;;7.85;5.25;;;;;;;;;;4463711;32;20298;-57
2021/08/17 08:06:05;;;;;;;6.50;5.37;;;;;;;;;;4463495;32;20248;-57
2021/08/17 08:08:30;;;;;;;6.30;4.95;;;;;;;;;;4463564;32;20215;-56
2021/08/17 08:10:56;;;;;;;6.32;5.00;;;;;;;;;;4464057;32;20298;-56
2021/08/17 08:13:21;;;;;;;8.27;4.40;;;;;;;;;;4463940;32;20232;-56
2021/08/17 08:15:47;;;;;;;7.32;4.78;;;;;;;;;;4464026;32;20333;-55
2021/08/17 08:18:12;;;;;;;10.00;6.10;;;;;;;;;;4463594;32;20228;-56
2021/08/17 08:20:38;;;;;;;7.15;5.07;;;;;;;;;;4462508;32;20263;-56
2021/08/17 08:23:05;;;;;;;6.72;5.37;;;;;;;;;;4452447;32;20325;-56
2021/08/17 08:25:31;;;;;;;7.70;4.78;;;;;;;;;;4448200;32;20237;-56
2021/08/17 08:27:56;;;;;;;9.88;6.00;;;;;;;;;;4448505;32;20794;-56
2021/08/17 08:30:22;;;;;;;7.53;5.25;;;;;;;;;;4448362;32;20303;-56
2021/08/17 08:32:47;;;;;;;8.20;5.47;;;;;;;;;;4458633;32;20697;-55
2021/08/17 08:35:13;;;;;;;6.80;5.28;;;;;;;;;;4463728;32;20212;-57
2021/08/17 08:37:38;;;;;;;11.55;5.12;;;;;;;;;;4463522;32;20283;-58
2021/08/17 08:40:06;;;;;;;7.05;5.60;;;;;;;;;;4463089;32;20326;-55
2021/08/17 08:42:31;;;;;;;8.35;5.07;;;;;;;;;;4463423;32;20211;-57
2021/08/17 08:44:57;;;;;;;9.82;5.43;;;;;;;;;;4462750;32;20341;-57
2021/08/17 08:47:22;;;;;;;6.20;5.20;;;;;;;;;;4463796;32;20302;-56
2021/08/17 08:49:51;;;;;;;7.87;5.70;;;;;;;;;;4463472;32;20224;-57
2021/08/17 08:52:17;;;;;;;8.63;5.15;;;;;;;;;;4463191;32;20626;-57
2021/08/17 08:54:42;;;;;;;8.20;5.43;;;;;;;;;;4463141;32;20259;-57
2021/08/17 08:57:08;;;;;;;8.02;6.72;;;;;;;;;;4463280;32;20291;-57
2021/08/17 08:59:34;;;;;;;7.80;6.35;;;;;;;;;;4463601;32;20366;-57
2021/08/17 09:02:13;;;;;;;13.10;6.68;;;;;;;;;;4464057;32;20477;-57
2021/08/17 09:04:47;;;;;;;10.02;6.45;;;;;;;;;;4463122;32;20255;-57
2021/08/17 09:07:13;;;;;;;9.25;6.93;;;;;;;;;;4463474;32;20351;-57
2021/08/17 09:09:39;;;;;;;6.95;5.87;;;;;;;;;;4463691;32;20216;-57
2021/08/17 09:12:04;;;;;;;7.15;5.10;;;;;;;;;;4463286;32;20370;-57
2021/08/17 09:14:35;;;;;;;10.90;6.25;;;;;;;;;;4463289;32;20352;-57
2021/08/17 09:17:06;;;;;;;7.18;6.35;;;;;;;;;;4463269;32;20238;-57
2021/08/17 09:19:42;;;;;;;10.02;6.28;;;;;;;;;;4450934;32;20208;-57
2021/08/17 09:22:21;;;;;;;9.60;5.07;;;;;;;;;;4450343;32;20204;-57
2021/08/17 09:24:49;;;;;;;17.98;6.03;;;;;;;;;;4450382;32;20232;-57
2021/08/17 09:27:17;;;;;;;7.07;5.43;;;;;;;;;;4450347;32;20326;-57
2021/08/17 09:29:45;;;;;;;7.65;6.15;;;;;;;;;;4450171;32;20557;-56
2021/08/17 09:32:22;;;;;;;9.30;6.25;;;;;;;;;;4450120;32;20268;-56
2021/08/17 09:34:50;;;;;;;8.63;5.85;;;;;;;;;;4449849;32;20571;-57
2021/08/17 09:37:17;;;;;;;8.40;5.70;;;;;;;;;;4450495;32;20212;-57
2021/08/17 09:39:46;;;;;;;6.45;5.37;;;;;;;;;;4450374;32;20280;-57
2021/08/17 09:42:15;;;;;;;10.20;5.82;;;;;;;;;;4450182;32;20236;-56
2021/08/17 09:44:43;;;;;;;6.10;4.37;;;;;;;;;;4449609;32;20232;-57
2021/08/17 09:47:09;;;;;;;12.25;5.87;;;;;;;;;;4450764;32;20213;-57
2021/08/17 09:49:35;;;;;;;6.60;4.97;;;;;;;;;;4450713;32;20328;-56
2021/08/17 09:52:11;;;;;;;8.05;4.97;;;;;;;;;;4450180;32;20332;-57
2021/08/17 09:54:40;;;;;;;5.50;4.82;;;;;;;;;;4450055;32;20291;-57
2021/08/17 09:57:07;;;;;;;6.85;5.50;;;;;;;;;;4449824;32;20560;-56
2021/08/17 09:59:34;;;;;;;6.43;5.00;;;;;;;;;;4435787;32;20229;-56
2021/08/17 10:02:01;;;;;;;12.30;5.50;;;;;;;;;;4449860;32;20629;-56
2021/08/17 10:04:26;;;;;;;7.30;5.62;;;;;;;;;;4450113;32;20292;-56
2021/08/17 10:06:55;;;;;;;10.25;5.93;;;;;;;;;;4439113;32;20296;-58
2021/08/17 10:09:23;;;;;;;7.25;5.35;;;;;;;;;;4444201;32;20244;-57
2021/08/17 10:11:48;;;;;;;7.90;5.45;;;;;;;;;;4423853;32;20240;-56
2021/08/17 10:14:15;;;;;;;4.72;4.22;;;;;;;;;;4434216;32;20352;-56
2021/08/17 10:16:41;;;;;;;7.70;5.18;;;;;;;;;;4434746;32;20613;-58
2021/08/17 10:19:08;;;;;;;8.68;4.68;;;;;;;;;;4434551;32;20283;-57
2021/08/17 10:21:37;;;;;;;6.87;4.85;;;;;;;;;;4448316;32;20305;-56
2021/08/17 10:24:29;;;;;;;11.35;5.03;;;;;;;;;;4457674;32;20590;-56
2021/08/17 10:27:25;;;;;;;5.47;4.82;;;;;;;;;;4460400;32;20244;-56
2021/08/17 10:30:11;;;;;;;5.57;4.30;;;;;;;;;;4464930;32;20242;-56
2021/08/17 10:32:37;;;;;;;6.00;4.50;;;;;;;;;;4465209;32;20211;-56
2021/08/17 10:35:03;;;;;;;7.20;4.90;;;;;;;;;;4464864;32;20240;-56
2021/08/17 10:37:29;;;;;;;6.12;4.75;;;;;;;;;;4464995;32;20640;-57
2021/08/17 10:39:54;;;;;;;7.25;5.93;;;;;;;;;;4463768;32;20316;-56
2021/08/17 10:42:26;;;;;;;7.30;5.20;;;;;;;;;;4448268;32;20613;-56
2021/08/17 10:44:52;;;;;;;7.05;5.10;;;;;;;;;;4449915;32;20281;-56
2021/08/17 10:47:34;;;;;;;7.85;5.40;;;;;;;;;;4449681;32;20248;-57
2021/08/17 10:50:00;;;;;;;7.50;5.18;;;;;;;;;;4449275;32;20216;-56
2021/08/17 10:52:29;;;;;;;6.53;5.05;;;;;;;;;;4449758;32;20271;-56
2021/08/17 10:55:19;;;;;;;8.15;5.37;;;;;;;;;;4449361;32;20295;-56
2021/08/17 10:57:55;;;;;;;8.30;4.85;;;;;;;;;;4449646;32;20283;-56
2021/08/17 11:00:39;;;;;;;8.07;5.90;;;;;;;;;;4449039;32;20599;-57
2021/08/17 11:03:05;;;;;;;7.03;5.78;;;;;;;;;;4449378;32;20306;-57
2021/08/17 11:05:51;;;;;;;8.15;5.95;;;;;;;;;;4449470;32;20212;-57
2021/08/17 11:08:32;;;;;;;6.93;6.22;;;;;;;;;;4449851;32;20370;-56
2021/08/17 11:11:03;;;;;;;6.35;5.43;;;;;;;;;;4449705;32;20343;-56
2021/08/17 11:13:29;;;;;;;7.53;5.30;;;;;;;;;;4449444;32;20342;-56
2021/08/17 11:16:07;;;;;;;7.68;5.35;;;;;;;;;;4447115;32;20439;-57
2021/08/17 11:18:53;;;;;;;8.90;6.40;;;;;;;;;;4447823;32;20442;-57
2021/08/17 11:21:55;;;;;;;7.80;6.00;;;;;;;;;;4461158;32;20272;-57
2021/08/17 11:24:37;;;;;;;9.90;6.43;;;;;;;;;;4419319;32;20231;-57
2021/08/17 11:27:02;;;;;;;6.90;5.22;;;;;;;;;;4464614;32;20231;-57
2021/08/17 11:29:38;;;;;;;7.15;5.62;;;;;;;;;;4464545;32;20220;-56
2021/08/17 11:32:07;;;;;;;6.45;5.78;;;;;;;;;;4463953;32;20609;-57
2021/08/17 11:34:35;;;;;;;6.85;5.62;;;;;;;;;;4464272;32;20525;-56
2021/08/17 11:37:07;;;;;;;9.32;5.25;;;;;;;;;;4464163;32;20331;-56
2021/08/17 11:39:38;;;;;;;9.90;5.90;;;;;;;;;;4464024;32;20232;-55
2021/08/17 11:42:13;;;;;;;10.27;5.78;;;;;;;;;;4464244;32;20253;-56
2021/08/17 11:44:39;;;;;;;10.10;5.93;;;;;;;;;;4463869;32;20583;-56
2021/08/17 11:47:07;;;;;;;14.18;6.22;;;;;;;;;;4464332;32;20291;-56
2021/08/17 11:49:34;;;;;;;8.40;6.72;;;;;;;;;;4463873;32;20250;-56
2021/08/17 11:52:23;;;;;;;10.32;5.15;;;;;;;;;;4463827;32;20281;-56
2021/08/17 11:54:58;;;;;;;7.40;5.90;;;;;;;;;;4463982;32;20215;-55
2021/08/17 11:57:25;;;;;;;9.20;7.05;;;;;;;;;;4464138;32;20222;-56
2021/08/17 11:59:51;;;;;;;13.90;6.12;;;;;;;;;;4464298;32;20560;-56
2021/08/17 12:02:24;;;;;;;8.48;6.50;;;;;;;;;;4450046;32;20632;-56
2021/08/17 12:05:00;;;;;;;9.25;6.45;;;;;;;;;;4449830;32;20631;-55
2021/08/17 12:07:27;;;;;;;9.90;7.05;;;;;;;;;;4449723;32;20627;-55
2021/08/17 12:09:54;;;;;;;11.77;7.70;;;;;;;;;;4463720;32;20228;-56
2021/08/17 12:12:57;;;;;;;14.75;7.90;;;;;;;;;;4463569;32;20204;-56
2021/08/17 12:15:27;;;;;;;10.35;6.85;;;;;;;;;;4454612;32;20264;-57
2021/08/17 12:18:04;;;;;;;9.80;6.32;;;;;;;;;;4448188;32;20296;-57
2021/08/17 12:20:31;;;;;;;9.82;7.20;;;;;;;;;;4448081;32;20291;-57
2021/08/17 12:22:56;;;;;;;8.52;6.68;;;;;;;;;;4448482;32;20647;-56
2021/08/17 12:25:28;;;;;;;8.90;6.90;;;;;;;;;;4448423;32;20279;-57
2021/08/17 12:27:55;;;;;;;9.13;7.10;;;;;;;;;;4448184;32;20285;-57
2021/08/17 12:30:31;;;;;;;9.35;7.53;;;;;;;;;;4447935;32;20308;-57
2021/08/17 12:32:57;;;;;;;13.20;7.57;;;;;;;;;;4459351;32;20571;-57
2021/08/17 12:35:31;;;;;;;10.02;7.50;;;;;;;;;;4463789;32;20306;-58
2021/08/17 12:38:16;;;;;;;9.60;7.32;;;;;;;;;;4463364;32;20218;-57
2021/08/17 12:40:53;;;;;;;17.83;8.68;;;;;;;;;;4463959;32;20195;-57
2021/08/17 12:43:26;;;;;;;13.40;7.97;;;;;;;;;;4463938;32;20262;-57
2021/08/17 12:45:53;;;;;;;11.68;8.50;;;;;;;;;;4463842;32;20188;-57
2021/08/17 12:48:20;;;;;;;10.32;8.27;;;;;;;;;;4463953;32;20312;-57
2021/08/17 12:50:48;;;;;;;10.05;8.90;;;;;;;;;;4463399;32;20284;-57
2021/08/17 12:53:24;;;;;;;10.95;8.40;;;;;;;;;;4463440;32;20296;-57
2021/08/17 12:55:51;;;;;;;8.52;6.62;;;;;;;;;;4464658;32;20679;-57
2021/08/17 12:58:23;;;;;;;11.30;8.63;;;;;;;;;;4466374;32;20865;-57
2021/08/17 13:00:49;;;;;;;9.07;7.57;;;;;;;;;;4466165;32;20220;-57
2021/08/17 13:03:15;;;;;;;12.88;7.72;;;;;;;;;;4466425;32;20240;-57
2021/08/17 13:05:42;;;;;;;14.43;8.90;;;;;;;;;;4464993;32;20559;-57
2021/08/17 13:08:09;;;;;;;13.23;10.35;;;;;;;;;;4454791;32;20224;-57
2021/08/17 13:10:35;;;;;;;22.35;10.52;;;;;;;;;;4450570;32;20317;-57
2021/08/17 13:13:02;;;;;;;16.40;9.07;;;;;;;;;;4450757;32;20269;-57
2021/08/17 13:15:27;;;;;;;13.85;9.60;;;;;;;;;;4460133;32;20756;-57
2021/08/17 13:17:53;;;;;;;16.92;9.15;;;;;;;;;;4465858;32;20290;-57
2021/08/17 13:20:22;;;;;;;10.73;8.68;;;;;;;;;;4465961;32;20216;-57
2021/08/17 13:22:49;;;;;;;13.35;8.13;;;;;;;;;;4465993;32;20240;-57
2021/08/17 13:25:15;;;;;;;12.35;8.38;;;;;;;;;;4465948;32;20341;-57
2021/08/17 13:27:41;;;;;;;14.87;9.25;;;;;;;;;;4466078;32;20596;-58
2021/08/17 13:30:07;;;;;;;15.35;8.98;;;;;;;;;;4466041;32;20228;-58
2021/08/17 13:32:34;;;;;;;17.90;10.85;;;;;;;;;;4457749;32;20733;-57
2021/08/17 13:35:00;;;;;;;13.95;9.98;;;;;;;;;;4465418;32;20639;-57
2021/08/17 13:37:26;;;;;;;15.90;9.25;;;;;;;;;;4451774;32;20365;-58
2021/08/17 13:39:51;;;;;;;12.40;9.98;;;;;;;;;;4465915;32;20259;-56
2021/08/17 13:42:17;;;;;;;14.05;9.15;;;;;;;;;;4465836;32;20309;-57
2021/08/17 13:44:43;;;;;;;14.32;9.40;;;;;;;;;;4465566;32;20274;-58
2021/08/17 13:47:09;;;;;;;17.20;9.32;;;;;;;;;;4465745;32;20298;-58
2021/08/17 13:49:35;;;;;;;11.75;9.30;;;;;;;;;;4465158;32;20282;-56
2021/08/17 13:52:02;;;;;;;13.25;8.63;;;;;;;;;;4465475;32;20629;-57
2021/08/17 13:54:28;;;;;;;10.93;8.57;;;;;;;;;;4465483;32;20224;-57
2021/08/17 13:56:54;;;;;;;8.50;7.60;;;;;;;;;;4465555;32;20674;-57
2021/08/17 13:59:19;;;;;;;13.90;7.78;;;;;;;;;;4465260;32;20236;-57
2021/08/17 14:01:46;;;;;;;13.50;8.43;;;;;;;;;;4465520;32;20687;-57
2021/08/17 14:04:12;;;;;;;9.60;8.55;;;;;;;;;;4455364;32;20262;-57
2021/08/17 14:06:38;;;;;;;11.55;7.55;;;;;;;;;;4449339;32;20787;-57
2021/08/17 14:09:05;;;;;;;10.13;7.40;;;;;;;;;;4449238;32;20307;-57
2021/08/17 14:11:33;;;;;;;12.35;7.18;;;;;;;;;;4449740;32;20317;-57
2021/08/17 14:13:58;;;;;;;11.43;7.47;;;;;;;;;;4449150;32;20278;-57
2021/08/17 14:16:25;;;;;;;10.10;6.93;;;;;;;;;;4465053;32;20643;-59
2021/08/17 14:18:51;;;;;;;8.88;6.93;;;;;;;;;;4464701;32;20236;-57
2021/08/17 14:21:19;;;;;;;10.90;6.90;;;;;;;;;;4464815;32;20622;-57
2021/08/17 14:23:45;;;;;;;11.95;7.35;;;;;;;;;;4464842;32;20602;-57
2021/08/17 14:26:14;;;;;;;8.02;5.97;;;;;;;;;;4465061;32;20518;-57
2021/08/17 14:28:40;;;;;;;12.50;7.62;;;;;;;;;;4464877;32;20308;-57
2021/08/17 14:31:06;;;;;;;13.07;7.72;;;;;;;;;;4464803;32;20692;-57
2021/08/17 14:33:31;;;;;;;11.12;7.70;;;;;;;;;;4449209;32;20300;-57
2021/08/17 14:35:59;;;;;;;9.30;6.85;;;;;;;;;;4448785;32;20237;-57
2021/08/17 14:38:24;;;;;;;10.20;7.45;;;;;;;;;;4449131;32;20320;-58
2021/08/17 14:40:50;;;;;;;10.57;6.70;;;;;;;;;;4449148;32;20235;-57